Time;durP1;ratioP1;P1;durP2;ratioP2;P2;SDS_P1;SDS_P2;PMS_P1;PMS_P2;Temp;Humidity;BMP_temperature;BMP_pressure;BME280_temperature;BME280_humidity;BME280_pressure;Samples;Min_cycle;Max_cycle;Signal;HPM_P1;HPM_P2
2022/12/21 00:03:14;;;;;;;2.35;2.20;;;;;;;9.27;100.00;101028.44;10413447;28;20049;-65
2022/12/21 00:08:16;;;;;;;3.83;0.93;;;;;;;9.36;100.00;101029.75;10368262;28;20049;-65
2022/12/21 00:13:18;;;;;;;1.25;1.15;;;;;;;9.28;100.00;101040.59;10402351;28;20104;-65
2022/12/21 00:18:21;;;;;;;1.38;1.20;;;;;;;9.18;100.00;101046.31;10400697;28;20124;-65
2022/12/21 00:23:23;;;;;;;1.98;1.23;;;;;;;9.22;100.00;101040.06;10392162;28;20054;-65
2022/12/21 00:28:25;;;;;;;0.70;0.70;;;;;;;9.15;100.00;101038.66;10362505;28;20042;-65
2022/12/21 00:33:28;;;;;;;0.20;0.20;;;;;;;9.23;100.00;101032.16;10387887;28;20049;-65
2022/12/21 00:38:30;;;;;;;3.30;3.10;;;;;;;9.24;100.00;101023.38;10420656;28;20046;-66
2022/12/21 00:43:35;;;;;;;0.38;0.38;;;;;;;9.44;100.00;101022.41;10372533;28;20451;-66
2022/12/21 00:48:38;;;;;;;0.10;0.10;;;;;;;9.26;100.00;101024.16;10383332;28;20049;-66
2022/12/21 00:53:40;;;;;;;0.25;0.25;;;;;;;9.28;100.00;101029.31;10379680;28;20056;-66
2022/12/21 00:58:43;;;;;;;0.15;0.15;;;;;;;9.16;100.00;101035.94;10370114;28;20080;-66
2022/12/21 01:03:46;;;;;;;5.07;1.48;;;;;;;9.07;100.00;101052.06;10409157;28;20053;-66
2022/12/21 01:08:49;;;;;;;1.65;1.55;;;;;;;8.94;100.00;101054.41;10355488;28;20049;-66
2022/12/21 01:13:51;;;;;;;1.58;1.48;;;;;;;9.09;100.00;101045.00;10388425;28;20049;-66
2022/12/21 01:18:54;;;;;;;0.20;0.20;;;;;;;9.00;100.00;101056.75;10408557;28;20101;-66
2022/12/21 01:23:57;;;;;;;3.95;3.72;;;;;;;9.09;100.00;101063.28;10408884;28;20049;-66
2022/12/21 01:28:59;;;;;;;0.20;0.20;;;;;;;9.05;100.00;101064.38;10397492;28;20050;-66
2022/12/21 01:34:01;;;;;;;0.20;0.20;;;;;;;9.01;100.00;101061.06;10376723;28;20054;-66
2022/12/21 01:39:04;;;;;;;0.40;0.40;;;;;;;8.92;100.00;101051.03;10377368;28;20049;-66
2022/12/21 01:44:45;;;;;;;1.27;1.27;;;;;;;9.05;100.00;101073.03;10364183;28;20490;-66
2022/12/21 01:49:52;;;;;;;0.15;0.15;;;;;;;8.97;100.00;101079.53;10376314;28;20046;-66
2022/12/21 01:54:59;;;;;;;0.43;0.43;;;;;;;9.03;100.00;101067.03;10392474;28;20046;-66
2022/12/21 02:00:03;;;;;;;0.20;0.20;;;;;;;8.92;100.00;101061.47;10392818;28;20046;-66
2022/12/21 02:05:33;;;;;;;0.20;0.20;;;;;;;8.89;100.00;101059.84;10415692;28;20050;-66
2022/12/21 02:10:35;;;;;;;0.20;0.20;;;;;;;8.99;100.00;101065.47;10376069;28;20050;-66
2022/12/21 02:15:58;;;;;;;0.20;0.20;;;;;;;8.80;100.00;101057.66;10401840;28;20054;-66
2022/12/21 02:21:19;;;;;;;27.52;8.27;;;;;;;8.84;100.00;101060.97;10386875;28;20255;-66
2022/12/21 02:26:56;;;;;;;0.28;0.28;;;;;;;8.72;100.00;101052.81;10392330;28;20057;-66
2022/12/21 02:32:13;;;;;;;0.20;0.20;;;;;;;8.78;100.00;101054.28;10328132;28;20068;-66
2022/12/21 02:37:23;;;;;;;0.30;0.30;;;;;;;8.84;100.00;101048.78;10395616;28;20120;-66
2022/12/21 02:48:15;;;;;;;0.20;0.20;;;;;;;8.74;100.00;101047.47;10370707;28;20045;-66
2022/12/21 02:53:22;;;;;;;5.05;4.78;;;;;;;8.64;100.00;101036.63;10406045;28;20057;-66
2022/12/21 02:58:24;;;;;;;1.35;0.73;;;;;;;8.49;100.00;101042.53;10380744;28;20119;-66
2022/12/21 03:03:55;;;;;;;0.20;0.20;;;;;;;8.62;100.00;101040.22;10388840;28;20525;-66
2022/12/21 03:09:34;;;;;;;0.10;0.10;;;;;;;8.51;100.00;101044.16;10407321;28;20046;-66
2022/12/21 03:14:59;;;;;;;0.40;0.40;;;;;;;8.59;100.00;101043.84;10407848;28;20053;-66
2022/12/21 03:20:19;;;;;;;0.20;0.20;;;;;;;8.56;100.00;101038.75;10404941;28;20049;-66
2022/12/21 03:25:30;;;;;;;3.92;2.92;;;;;;;8.52;100.00;101047.59;10400264;28;20487;-66
2022/12/21 03:30:37;;;;;;;0.27;0.27;;;;;;;8.43;100.00;101040.22;10372562;28;20096;-66
2022/12/21 03:35:48;;;;;;;0.20;0.20;;;;;;;8.59;100.00;101029.91;10390483;28;20053;-66
2022/12/21 03:40:54;;;;;;;5.32;2.72;;;;;;;8.38;100.00;101037.75;10359880;28;20046;-66
2022/12/21 03:46:08;;;;;;;0.30;0.30;;;;;;;8.43;100.00;101032.38;10388684;28;20100;-66
2022/12/21 03:51:36;;;;;;;0.38;0.38;;;;;;;8.34;100.00;101021.41;10386732;28;20057;-66
2022/12/21 03:56:39;;;;;;;0.17;0.17;;;;;;;8.45;100.00;101009.66;10402492;28;20053;-65
2022/12/21 04:02:03;;;;;;;0.55;0.55;;;;;;;8.33;100.00;101019.69;10390228;28;20057;-65
2022/12/21 04:07:07;;;;;;;0.20;0.20;;;;;;;8.24;100.00;101021.84;10364212;28;20045;-65
2022/12/21 04:17:34;;;;;;;0.30;0.30;;;;;;;8.03;100.00;100994.97;10382702;28;20050;-65
2022/12/21 04:28:09;;;;;;;0.20;0.20;;;;;;;8.15;100.00;101005.72;10398403;28;20476;-65
2022/12/21 04:33:31;;;;;;;0.20;0.20;;;;;;;8.36;100.00;101014.34;10404321;28;20088;-65
2022/12/21 04:38:36;;;;;;;0.20;0.20;;;;;;;8.15;100.00;101004.84;10395577;28;20140;-65
2022/12/21 04:43:40;;;;;;;0.20;0.20;;;;;;;8.15;100.00;101010.06;10386470;28;20459;-65
2022/12/21 04:48:43;;;;;;;0.93;0.93;;;;;;;8.31;100.00;101029.34;10403915;28;20050;-65
2022/12/21 04:53:46;;;;;;;0.20;0.20;;;;;;;8.36;100.00;101027.38;10416816;28;20057;-65
2022/12/21 04:58:48;;;;;;;0.38;0.38;;;;;;;8.20;100.00;101023.75;10380952;28;20048;-65
2022/12/21 05:03:51;;;;;;;0.20;0.20;;;;;;;8.28;100.00;101024.28;10434046;22;20044;-65
2022/12/21 05:08:54;;;;;;;0.20;0.20;;;;;;;8.44;100.00;101029.72;10500995;28;20074;-65
2022/12/21 05:13:56;;;;;;;1.48;1.38;;;;;;;8.27;100.00;101026.94;10501011;28;20060;-65
2022/12/21 05:18:58;;;;;;;0.20;0.20;;;;;;;8.34;100.00;101010.13;10502241;28;20052;-65
2022/12/21 05:24:01;;;;;;;0.10;0.10;;;;;;;8.37;100.00;100999.53;10500490;28;20049;-65
2022/12/21 05:29:03;;;;;;;0.20;0.20;;;;;;;8.33;100.00;101001.44;10501468;28;20053;-65
2022/12/21 05:34:06;;;;;;;0.25;0.25;;;;;;;8.23;100.00;101009.75;10502529;28;20082;-65
2022/12/21 05:39:08;;;;;;;0.10;0.10;;;;;;;8.30;100.00;101003.34;10502350;28;20056;-65
2022/12/21 05:44:10;;;;;;;0.50;0.50;;;;;;;8.24;100.00;100990.56;10501610;28;20056;-65
2022/12/21 05:49:13;;;;;;;3.00;2.83;;;;;;;8.26;100.00;100976.53;10500938;28;20514;-65
2022/12/21 05:54:15;;;;;;;2.05;1.95;;;;;;;7.96;100.00;100978.75;10479638;28;20049;-65
2022/12/21 05:59:18;;;;;;;0.22;0.22;;;;;;;7.92;100.00;101001.50;10500377;28;20376;-65
2022/12/21 06:04:20;;;;;;;0.20;0.20;;;;;;;7.87;100.00;100994.78;10499976;28;20094;-65
2022/12/21 06:09:23;;;;;;;0.30;0.30;;;;;;;8.08;100.00;100987.78;10499622;28;20049;-65
2022/12/21 06:14:25;;;;;;;0.28;0.28;;;;;;;7.80;100.00;100984.63;10500583;28;20045;-65
2022/12/21 06:19:28;;;;;;;0.75;0.75;;;;;;;7.90;100.00;100969.44;10499384;28;20048;-65
2022/12/21 06:24:30;;;;;;;2.75;2.65;;;;;;;7.51;100.00;100975.41;10481876;28;20052;-65
2022/12/21 06:29:33;;;;;;;0.30;0.30;;;;;;;7.68;100.00;100974.69;10499583;28;20059;-65
2022/12/21 06:34:35;;;;;;;0.10;0.10;;;;;;;7.56;100.00;100973.47;10497984;28;20048;-65
2022/12/21 06:39:37;;;;;;;0.52;0.52;;;;;;;7.47;100.00;100973.03;10499827;28;20044;-65
2022/12/21 06:44:40;;;;;;;0.20;0.20;;;;;;;7.57;100.00;100977.78;10499664;28;20044;-66
2022/12/21 06:49:42;;;;;;;1.42;1.33;;;;;;;7.50;100.00;100985.91;10497014;28;20040;-65
2022/12/21 06:54:50;;;;;;;0.20;0.20;;;;;;;7.37;100.00;100980.38;10499375;28;20177;-65
2022/12/21 06:59:53;;;;;;;0.38;0.38;;;;;;;7.50;100.00;100991.97;10498738;28;20045;-65
2022/12/21 07:04:55;;;;;;;4.22;4.03;;;;;;;7.67;100.00;100998.25;10498095;28;20101;-66
2022/12/21 07:09:57;;;;;;;0.68;0.63;;;;;;;7.49;100.00;100997.25;10497602;28;20048;-66
2022/12/21 07:15:00;;;;;;;0.20;0.20;;;;;;;7.69;100.00;100999.03;10495748;28;20514;-66
2022/12/21 07:20:02;;;;;;;0.30;0.30;;;;;;;7.75;100.00;101010.03;10498640;28;20041;-65
2022/12/21 07:25:05;;;;;;;0.35;0.35;;;;;;;7.63;100.00;101005.31;10497189;28;20052;-65
2022/12/21 07:30:08;;;;;;;0.20;0.20;;;;;;;7.57;100.00;101009.03;10498327;28;20045;-66
2022/12/21 07:35:10;;;;;;;0.20;0.20;;;;;;;7.59;100.00;100995.94;10497087;28;20057;-66
2022/12/21 07:40:15;;;;;;;0.20;0.20;;;;;;;7.49;100.00;101007.69;10496989;28;20041;-65
2022/12/21 07:45:18;;;;;;;0.13;0.13;;;;;;;7.48;100.00;101014.66;10497491;28;20399;-66
2022/12/21 07:50:20;;;;;;;0.20;0.20;;;;;;;7.40;100.00;101007.13;10494278;28;20392;-65
2022/12/21 07:55:22;;;;;;;0.10;0.10;;;;;;;7.38;100.00;101021.97;10498468;28;20059;-67
2022/12/21 08:00:25;;;;;;;0.20;0.20;;;;;;;7.37;100.00;101025.50;10497859;28;20052;-66
2022/12/21 08:05:27;;;;;;;1.38;1.38;;;;;;;6.90;100.00;101036.03;10496254;28;20564;-66
2022/12/21 08:10:30;;;;;;;0.32;0.32;;;;;;;7.19;100.00;101047.91;10494971;28;20399;-66
2022/12/21 08:15:32;;;;;;;0.20;0.20;;;;;;;7.37;100.00;101042.88;10498091;28;20052;-66
2022/12/21 08:20:35;;;;;;;9.43;3.50;;;;;;;7.37;100.00;101048.94;10495692;28;20044;-66
2022/12/21 08:25:37;;;;;;;0.17;0.17;;;;;;;7.30;100.00;101057.91;10495920;28;20483;-66
2022/12/21 08:30:40;;;;;;;4.47;1.17;;;;;;;7.42;100.00;101049.59;10495252;28;20074;-66
2022/12/21 08:35:43;;;;;;;0.65;0.65;;;;;;;7.37;100.00;101051.53;10494647;28;20451;-66
2022/12/21 08:40:45;;;;;;;0.22;0.22;;;;;;;7.62;100.00;101050.56;10506111;28;20131;-66
2022/12/21 08:45:48;;;;;;;0.35;0.35;;;;;;;7.60;100.00;101050.63;10499325;28;20052;-66
2022/12/21 08:50:53;;;;;;;4.85;1.35;;;;;;;7.54;100.00;101045.66;10503070;28;20045;-66
2022/12/21 08:55:56;;;;;;;0.20;0.20;;;;;;;7.61;100.00;101036.66;10503822;28;20063;-66
2022/12/21 09:00:58;;;;;;;0.43;0.43;;;;;;;7.91;100.00;101038.91;10486759;28;20044;-66
2022/12/21 09:06:04;;;;;;;0.63;0.63;;;;;;;7.53;100.00;101037.88;10495610;28;20491;-66
2022/12/21 09:11:12;;;;;;;1.10;1.10;;;;;;;7.63;100.00;101047.88;10493590;28;20040;-66
2022/12/21 09:16:20;;;;;;;5.45;1.30;;;;;;;7.73;100.00;101058.78;10500906;28;20066;-65
2022/12/21 09:21:23;;;;;;;1.08;0.90;;;;;;;7.98;100.00;101047.31;10501322;28;20072;-65
2022/12/21 09:26:25;;;;;;;1.52;1.52;;;;;;;7.96;100.00;101057.81;10500983;28;21801;-66
2022/12/21 09:31:28;;;;;;;2.42;1.27;;;;;;;7.80;100.00;101054.13;10498126;28;20041;-66
2022/12/21 09:36:32;;;;;;;0.32;0.32;;;;;;;8.10;100.00;101058.97;10501979;28;20051;-66
2022/12/21 09:42:18;;;;;;;1.30;0.70;;;;;;;8.11;100.00;101047.66;10502462;28;20041;-65
2022/12/21 09:47:27;;;;;;;0.85;0.85;;;;;;;8.26;100.00;101033.94;10465841;28;20057;-65
2022/12/21 09:52:37;;;;;;;0.20;0.20;;;;;;;8.28;100.00;101045.16;10498658;28;20070;-66
2022/12/21 09:57:39;;;;;;;0.35;0.35;;;;;;;8.37;100.00;101052.59;10478139;28;20131;-66
2022/12/21 10:03:26;;;;;;;0.13;0.13;;;;;;;8.38;100.00;101046.44;10445061;28;20484;-66
2022/12/21 10:08:40;;;;;;;0.40;0.40;;;;;;;8.26;100.00;101053.97;10459726;28;20049;-66
2022/12/21 10:14:01;;;;;;;1.35;1.25;;;;;;;8.50;100.00;101036.41;10467757;28;20052;-66
2022/12/21 10:19:19;;;;;;;0.20;0.20;;;;;;;8.58;100.00;101030.84;10496775;28;20060;-66
2022/12/21 10:24:41;;;;;;;1.20;1.13;;;;;;;8.64;100.00;101025.31;10483934;28;20286;-66
2022/12/21 10:29:49;;;;;;;0.20;0.20;;;;;;;8.88;100.00;101018.16;10501069;28;20056;-66
2022/12/21 10:34:54;;;;;;;0.55;0.55;;;;;;;9.12;100.00;101023.97;10499046;28;20438;-66
2022/12/21 10:39:57;;;;;;;0.10;0.10;;;;;;;9.32;100.00;101017.78;10501242;28;20056;-66
2022/12/21 10:44:59;;;;;;;8.70;2.70;;;;;;;8.82;100.00;101011.44;10500632;28;20044;-66
2022/12/21 10:50:14;;;;;;;5.22;3.15;;;;;;;9.03;100.00;101020.03;10500372;28;20045;-66
2022/12/21 10:55:19;;;;;;;0.20;0.20;;;;;;;8.93;100.00;101018.78;10500129;28;20056;-70
2022/12/21 11:00:35;;;;;;;1.60;1.50;;;;;;;8.99;100.00;101013.25;10499983;28;20131;-70
2022/12/21 11:05:40;;;;;;;2.20;2.00;;;;;;;8.98;100.00;101011.56;10498033;28;20065;-71
2022/12/21 11:10:44;;;;;;;0.50;0.50;;;;;;;9.26;100.00;101005.00;10497856;28;20048;-70
2022/12/21 11:16:09;;;;;;;0.40;0.40;;;;;;;8.89;100.00;101009.38;10497759;28;20479;-69
2022/12/21 11:21:23;;;;;;;3.45;1.45;;;;;;;9.21;100.00;100989.59;10498162;28;20052;-72
2022/12/21 11:26:28;;;;;;;1.90;1.80;;;;;;;9.34;100.00;100986.34;10497986;28;20048;-67
2022/12/21 11:31:32;;;;;;;1.75;1.65;;;;;;;9.28;100.00;100983.13;10498029;28;20040;-67
2022/12/21 11:36:57;;;;;;;0.10;0.10;;;;;;;9.40;100.00;100981.69;10498385;28;20124;-68
2022/12/21 11:41:59;;;;;;;0.20;0.20;;;;;;;9.12;100.00;100987.41;10498061;28;20461;-67
2022/12/21 11:47:16;;;;;;;0.20;0.20;;;;;;;8.85;100.00;100989.56;10498655;28;20055;-67
2022/12/21 11:53:02;;;;;;;10.50;5.50;;;;;;;9.05;100.00;100997.28;10498449;28;20044;-67
2022/12/21 11:58:10;;;;;;;1.52;1.30;;;;;;;9.18;100.00;100994.94;10353767;28;20082;-68
2022/12/21 12:03:19;;;;;;;0.73;0.73;;;;;;;8.87;100.00;100975.50;10474470;28;20092;-65
2022/12/21 12:08:39;;;;;;;0.25;0.25;;;;;;;9.08;100.00;100970.19;10498109;28;20050;-66
2022/12/21 12:14:04;;;;;;;0.47;0.47;;;;;;;9.38;100.00;100962.63;10497508;28;20476;-66
2022/12/21 12:19:18;;;;;;;26.23;1.55;;;;;;;9.10;100.00;100950.91;10498835;28;20041;-65
2022/12/21 12:24:29;;;;;;;1.33;0.70;;;;;;;8.82;100.00;100950.53;10506243;28;20048;-66
2022/12/21 12:29:53;;;;;;;0.45;0.45;;;;;;;8.90;100.00;100943.19;10505959;28;20045;-71
2022/12/21 12:35:00;;;;;;;5.93;2.17;;;;;;;8.83;100.00;100941.81;10505237;28;20052;-71
2022/12/21 12:40:09;;;;;;;1.48;1.48;;;;;;;9.00;100.00;100933.16;10506069;28;20102;-72
2022/12/21 12:45:21;;;;;;;0.30;0.30;;;;;;;8.96;100.00;100927.25;10504707;28;20057;-68
2022/12/21 12:51:05;;;;;;;0.40;0.40;;;;;;;9.02;100.00;100934.75;10504490;28;20071;-73
2022/12/21 12:56:32;;;;;;;3.22;2.08;;;;;;;8.80;100.00;100929.72;10376561;28;20054;-69
2022/12/21 13:01:40;;;;;;;0.85;0.85;;;;;;;9.02;100.00;100920.84;10482258;28;20059;-69
2022/12/21 13:07:05;;;;;;;4.60;4.40;;;;;;;8.96;100.00;100929.84;10486557;28;20067;-69
2022/12/21 13:12:16;;;;;;;1.02;0.95;;;;;;;9.05;100.00;100923.31;10486505;28;20056;-69
2022/12/21 13:17:30;;;;;;;3.10;0.63;;;;;;;9.24;100.00;100915.41;10502307;28;20056;-71
2022/12/21 13:22:35;;;;;;;0.38;0.38;;;;;;;9.10;100.00;100906.50;10504011;28;20044;-69
2022/12/21 13:27:40;;;;;;;0.65;0.65;;;;;;;9.29;100.00;100900.34;10502604;28;20422;-72
2022/12/21 13:32:54;;;;;;;5.55;2.88;;;;;;;9.09;100.00;100898.72;10501082;28;20054;-71
2022/12/21 13:38:14;;;;;;;0.20;0.20;;;;;;;9.16;100.00;100899.28;10498946;28;20052;-71
2022/12/21 13:43:17;;;;;;;0.95;0.95;;;;;;;9.16;100.00;100904.50;10500541;28;20483;-71
2022/12/21 13:48:28;;;;;;;0.20;0.20;;;;;;;9.00;100.00;100894.81;10491622;28;20044;-71
2022/12/21 13:54:04;;;;;;;0.10;0.10;;;;;;;8.87;100.00;100894.56;10460932;28;20049;-71
2022/12/21 13:59:31;;;;;;;2.28;0.68;;;;;;;9.09;100.00;100904.81;10482557;28;20049;-71
2022/12/21 14:04:54;;;;;;;0.85;0.85;;;;;;;9.02;100.00;100898.19;10459391;28;20057;-71
2022/12/21 14:10:19;;;;;;;0.30;0.30;;;;;;;9.01;100.00;100893.91;10481141;28;20051;-67
2022/12/21 14:15:59;;;;;;;0.10;0.10;;;;;;;8.73;100.00;100895.22;10500888;28;20048;-70
2022/12/21 14:21:13;;;;;;;0.20;0.20;;;;;;;8.95;100.00;100893.38;10488633;28;20102;-67
2022/12/21 14:26:44;;;;;;;1.13;0.95;;;;;;;8.60;100.00;100890.69;10499021;28;20052;-67
2022/12/21 14:31:57;;;;;;;2.20;0.65;;;;;;;8.55;100.00;100889.13;10499413;28;20495;-67
2022/12/21 14:37:11;;;;;;;0.20;0.20;;;;;;;8.62;100.00;100887.06;10498704;28;20102;-66
2022/12/21 14:42:40;;;;;;;0.98;0.93;;;;;;;8.36;100.00;100881.28;10498426;28;20044;-68
2022/12/21 14:47:48;;;;;;;2.40;1.00;;;;;;;8.59;100.00;100882.03;10481232;28;20045;-69
2022/12/21 14:53:19;;;;;;;2.03;1.10;;;;;;;8.31;100.00;100879.81;10487180;28;20049;-67
2022/12/21 14:58:24;;;;;;;0.25;0.25;;;;;;;8.37;100.00;100882.13;10490626;28;20462;-66
2022/12/21 15:04:00;;;;;;;1.38;0.73;;;;;;;8.50;100.00;100877.22;10496736;28;20501;-68
2022/12/21 15:09:21;;;;;;;0.20;0.20;;;;;;;8.48;100.00;100871.22;10496734;28;20508;-63
2022/12/21 15:14:33;;;;;;;0.20;0.20;;;;;;;8.25;100.00;100869.66;10497429;28;20060;-63
2022/12/21 15:19:44;;;;;;;0.30;0.30;;;;;;;8.25;100.00;100856.63;10497277;28;20048;-63
2022/12/21 15:24:53;;;;;;;0.10;0.10;;;;;;;8.12;100.00;100859.81;10499791;28;20054;-63
2022/12/21 15:30:19;;;;;;;0.20;0.20;;;;;;;8.22;100.00;100860.25;10497565;28;20045;-63
2022/12/21 15:35:41;;;;;;;1.50;1.27;;;;;;;8.00;100.00;100844.72;10497411;28;20084;-64
2022/12/21 15:40:56;;;;;;;0.88;0.88;;;;;;;8.06;100.00;100835.78;10497013;28;20052;-63
2022/12/21 15:46:19;;;;;;;0.15;0.15;;;;;;;7.88;100.00;100833.09;10497398;28;20487;-63
2022/12/21 15:51:29;;;;;;;4.03;0.52;;;;;;;8.03;100.00;100839.34;10497822;28;20110;-63
2022/12/21 15:56:32;;;;;;;0.20;0.20;;;;;;;7.89;100.00;100819.16;10497701;28;20110;-63
2022/12/21 16:01:35;;;;;;;0.57;0.57;;;;;;;7.76;100.00;100811.03;10497216;28;20106;-63
2022/12/21 16:06:48;;;;;;;0.10;0.10;;;;;;;7.96;100.00;100819.72;10496626;28;20049;-63
2022/12/21 16:11:51;;;;;;;0.20;0.20;;;;;;;8.25;100.00;100815.72;10496265;28;20048;-63
2022/12/21 16:17:24;;;;;;;1.33;1.23;;;;;;;7.82;100.00;100812.53;10496254;28;20106;-63
2022/12/21 16:22:30;;;;;;;0.40;0.40;;;;;;;7.91;100.00;100806.88;10496358;28;20503;-63
2022/12/21 16:27:33;;;;;;;0.30;0.30;;;;;;;7.91;100.00;100806.88;10495982;28;20408;-63
2022/12/21 16:32:36;;;;;;;0.30;0.30;;;;;;;7.98;100.00;100803.09;10496420;28;20048;-63
2022/12/21 16:37:38;;;;;;;0.50;0.50;;;;;;;7.95;100.00;100797.16;10495676;28;20048;-63
2022/12/21 16:42:40;;;;;;;0.40;0.40;;;;;;;7.88;100.00;100795.75;10482347;28;20045;-63
2022/12/21 16:47:43;;;;;;;0.30;0.30;;;;;;;7.75;100.00;100788.50;10478047;28;20438;-63
2022/12/21 16:52:47;;;;;;;0.10;0.10;;;;;;;8.00;100.00;100789.97;10496562;28;20055;-63
2022/12/21 16:57:57;;;;;;;0.20;0.20;;;;;;;7.65;100.00;100786.38;10495504;28;20060;-63
2022/12/21 17:03:29;;;;;;;0.68;0.68;;;;;;;7.57;100.00;100778.91;10495438;28;20052;-63
2022/12/21 17:08:43;;;;;;;0.20;0.20;;;;;;;7.74;100.00;100784.19;10502041;28;20518;-63
2022/12/21 17:13:48;;;;;;;0.20;0.20;;;;;;;7.67;100.00;100755.91;10502240;28;20052;-63
2022/12/21 17:19:03;;;;;;;1.55;0.90;;;;;;;7.38;100.00;100755.44;10474955;22;20061;-63
2022/12/21 17:24:25;;;;;;;0.90;0.90;;;;;;;7.34;100.00;100766.91;10379276;28;20060;-63
2022/12/21 17:29:33;;;;;;;0.35;0.35;;;;;;;7.59;100.00;100769.25;10378415;28;20136;-63
2022/12/21 17:34:38;;;;;;;0.28;0.28;;;;;;;7.63;100.00;100763.84;10379967;28;20092;-63
2022/12/21 17:39:41;;;;;;;0.25;0.25;;;;;;;7.61;100.00;100757.00;10378672;28;20088;-63
2022/12/21 17:44:43;;;;;;;0.10;0.10;;;;;;;7.77;100.00;100750.19;10377360;28;20049;-63
2022/12/21 17:49:46;;;;;;;0.28;0.28;;;;;;;7.84;100.00;100749.91;10377537;28;20562;-63
2022/12/21 17:54:48;;;;;;;0.70;0.70;;;;;;;7.97;100.00;100749.25;10379116;28;20050;-63
2022/12/21 17:59:51;;;;;;;0.20;0.20;;;;;;;8.06;100.00;100729.69;10377864;28;20050;-63
2022/12/21 18:04:55;;;;;;;0.20;0.20;;;;;;;7.86;100.00;100737.63;10378212;28;20061;-63
2022/12/21 18:09:58;;;;;;;0.85;0.85;;;;;;;7.85;100.00;100743.75;10346353;28;20405;-63
2022/12/21 18:15:00;;;;;;;2.70;2.10;;;;;;;8.08;100.00;100737.47;10376337;28;20050;-63
2022/12/21 18:20:03;;;;;;;0.30;0.30;;;;;;;7.79;100.00;100734.47;10358328;28;20054;-63
2022/12/21 18:25:11;;;;;;;0.10;0.10;;;;;;;8.02;100.00;100741.22;10376965;28;20073;-63
2022/12/21 18:30:19;;;;;;;0.20;0.20;;;;;;;7.96;100.00;100734.50;10376297;28;20058;-63
2022/12/21 18:35:24;;;;;;;2.55;1.77;;;;;;;8.05;100.00;100737.59;10357886;28;20489;-63
2022/12/21 18:40:26;;;;;;;5.70;1.77;;;;;;;8.08;100.00;100724.41;10354059;28;20045;-63
2022/12/21 18:45:29;;;;;;;2.08;1.23;;;;;;;8.05;100.00;100730.63;10365700;28;20057;-63
2022/12/21 18:50:31;;;;;;;0.13;0.13;;;;;;;8.13;100.00;100718.06;10385276;28;20077;-63
2022/12/21 18:55:34;;;;;;;0.20;0.20;;;;;;;8.14;100.00;100713.69;10357825;28;20485;-63
2022/12/21 19:00:39;;;;;;;0.20;0.20;;;;;;;8.22;100.00;100713.31;10376646;28;20050;-63
2022/12/21 19:05:41;;;;;;;0.20;0.20;;;;;;;8.18;100.00;100696.97;10359027;28;20111;-64
2022/12/21 19:10:50;;;;;;;0.47;0.47;;;;;;;8.15;100.00;100686.69;10375223;28;20049;-64
2022/12/21 19:15:54;;;;;;;1.13;0.90;;;;;;;7.96;100.00;100684.13;10358983;28;20046;-63
2022/12/21 19:20:57;;;;;;;0.10;0.10;;;;;;;8.26;100.00;100683.56;10359001;28;20053;-63
2022/12/21 19:25:59;;;;;;;0.10;0.10;;;;;;;8.11;100.00;100675.56;10357955;28;20111;-64
2022/12/21 19:31:01;;;;;;;0.17;0.17;;;;;;;8.26;100.00;100671.34;10371108;28;20046;-64
2022/12/21 19:36:04;;;;;;;0.20;0.20;;;;;;;8.09;100.00;100668.75;10375440;28;20050;-63
2022/12/21 19:41:06;;;;;;;0.68;0.68;;;;;;;8.03;100.00;100661.22;10375849;28;20054;-63
2022/12/21 19:46:25;;;;;;;1.27;1.00;;;;;;;8.10;100.00;100667.81;10357028;28;20050;-64
2022/12/21 19:51:27;;;;;;;0.10;0.10;;;;;;;8.27;100.00;100644.38;10374196;28;20049;-63
2022/12/21 19:56:30;;;;;;;0.10;0.10;;;;;;;8.17;100.00;100643.16;10374415;28;20077;-64
2022/12/21 20:01:35;;;;;;;0.28;0.28;;;;;;;8.06;100.00;100637.59;10374812;28;20100;-63
2022/12/21 20:06:37;;;;;;;0.30;0.30;;;;;;;8.26;100.00;100632.22;10374039;28;20077;-64
2022/12/21 20:11:40;;;;;;;0.10;0.10;;;;;;;8.19;100.00;100626.47;10374120;28;20145;-64
2022/12/21 20:16:42;;;;;;;0.30;0.30;;;;;;;8.21;100.00;100623.81;10373695;28;20104;-63
2022/12/21 20:21:44;;;;;;;0.20;0.20;;;;;;;8.46;100.00;100631.25;10374222;28;20049;-63
2022/12/21 20:26:48;;;;;;;2.55;2.45;;;;;;;8.41;100.00;100622.78;10356349;28;20060;-63
2022/12/21 20:31:58;;;;;;;0.63;0.63;;;;;;;8.16;100.00;100623.19;10372669;28;20057;-63
2022/12/21 20:37:00;;;;;;;0.22;0.22;;;;;;;8.53;100.00;100619.56;10372708;28;20452;-64
2022/12/21 20:47:29;;;;;;;1.08;0.77;;;;;;;8.34;100.00;100613.59;10380570;28;20127;-64
2022/12/21 20:52:32;;;;;;;0.20;0.20;;;;;;;8.44;100.00;100601.81;10381489;28;20046;-64
2022/12/21 20:57:34;;;;;;;0.20;0.20;;;;;;;8.54;100.00;100620.44;10380203;28;20383;-64
2022/12/21 21:02:40;;;;;;;0.20;0.20;;;;;;;8.51;100.00;100608.38;10381234;28;20065;-63
2022/12/21 21:07:47;;;;;;;0.20;0.20;;;;;;;8.40;100.00;100595.00;10363106;28;20054;-64
2022/12/21 21:12:50;;;;;;;0.40;0.40;;;;;;;8.56;100.00;100589.88;10389032;28;20096;-64
2022/12/21 21:17:55;;;;;;;1.05;1.05;;;;;;;8.74;100.00;100586.31;10374037;28;20493;-64
2022/12/21 21:23:00;;;;;;;0.17;0.17;;;;;;;8.51;100.00;100587.50;10380107;28;20053;-64
2022/12/21 21:28:16;;;;;;;0.17;0.17;;;;;;;8.68;100.00;100593.63;10379459;28;20053;-64
2022/12/21 21:33:18;;;;;;;0.30;0.30;;;;;;;8.72;100.00;100595.13;10361908;28;20568;-64
2022/12/21 21:43:43;;;;;;;2.20;1.00;;;;;;;8.69;100.00;100582.22;10378980;28;20532;-64
2022/12/21 21:48:46;;;;;;;0.20;0.20;;;;;;;8.67;100.00;100571.88;10377199;28;20485;-64
2022/12/21 21:53:48;;;;;;;0.68;0.68;;;;;;;8.53;100.00;100561.34;10377920;28;20100;-64
2022/12/21 21:58:51;;;;;;;0.30;0.30;;;;;;;8.61;100.00;100563.53;10361543;28;20100;-64
2022/12/21 22:03:53;;;;;;;0.30;0.30;;;;;;;8.53;100.00;100551.72;10377663;28;20390;-64
2022/12/21 22:08:56;;;;;;;0.47;0.25;;;;;;;8.69;100.00;100548.31;10374647;28;20061;-64
2022/12/21 22:13:59;;;;;;;0.52;0.52;;;;;;;8.76;100.00;100541.84;10376217;28;20508;-64
2022/12/21 22:19:01;;;;;;;0.20;0.20;;;;;;;8.89;100.00;100539.41;10377461;28;20555;-64
2022/12/21 22:46:02;;;;;;;0.63;0.63;;;;;;;8.58;100.00;100501.09;10362513;28;20050;-64
2022/12/21 22:51:26;;;;;;;1.00;1.00;;;;;;;8.59;100.00;100505.34;10358074;28;20050;-64
2022/12/21 22:56:31;;;;;;;1.27;1.17;;;;;;;8.54;100.00;100509.06;10376935;28;20057;-64
2022/12/21 23:01:33;;;;;;;1.50;1.40;;;;;;;8.50;100.00;100512.75;10358697;28;20420;-64
2022/12/21 23:06:36;;;;;;;0.20;0.20;;;;;;;8.57;100.00;100502.00;10358248;28;20074;-64
2022/12/21 23:14:47;;;;;;;1.75;1.75;;;;;;;8.68;100.00;100503.09;10374829;28;20045;-64
2022/12/21 23:18:31;;;;;;;;;;;;;;;8.57;100.00;100497.59;10362085;28;20046;-64
2022/12/21 23:27:55;;;;;;;0.20;0.20;;;;;;;8.78;100.00;100500.00;10374542;28;20429;-64
2022/12/21 23:43:40;;;;;;;0.22;0.22;;;;;;;8.49;100.00;100479.78;10374109;28;20400;-64
